Welcome to Northern Hawkes Bay. New Zealand.
PWS Header
      nz Flag



Hit Counter


W3C Valid W3C Valid logo


    Wairoa

Select any of the Stations below to visit their websites.










Historic Data from Weather Underground
Select the location of interest below. Wairoa is the default. Please have patience, this Data is slow to load in.
Northern Hawkes Bay Historical Data
Daily Summary for March 23, 2017 Units:  Metric    English   Both
« Previous Day
Next Day »
Daily Weekly Monthly Yearly Custom
  High: Low: Average:
Temperature: 25.6 °C 13.4 °C 17.3 °C
Dew Point: 18.2 °C 13.3 °C 15 °C
Humidity: 99% 60% 87%
Wind Speed: 17.2km/h 0.0km/h 2.8km/h
Wind Gust: 21.9km/h - -
Wind- - SSE
Pressure: 1020.2 hPa 1011.4 hPa -
Precipitation: 0.3 mm    
Historical Graphs
 
 
Tabular Data for March 23, 2017
Time Temperature Dew Point Pressure Wind Wind Speed Wind Gust Humidity Rainfall Rate (Hourly) solar
00:00 17.0 °C 14.8 °C 1018.2 hPa East 2.6 km/h 9.7 km/h 87% 0.0 mm 85 W/m2
00:01 17.0 °C 14.8 °C 1018.2 hPa ESE 1.1 km/h 9.7 km/h 87% 0.0 mm 90 W/m2
00:02 17.1 °C 14.9 °C 1018.5 hPa Calm   9.7 km/h 87% 0.0 mm 100 W/m2
00:03 17.1 °C 14.9 °C 1018.2 hPa East 1.1 km/h 9.7 km/h 87% 0.0 mm 110 W/m2
00:04 17.1 °C 14.9 °C 1018.5 hPa Calm   7.2 km/h 87% 0.0 mm 113 W/m2
00:06 17.2 °C 15.0 °C 1018.5 hPa Calm   7.2 km/h 87% 0.0 mm 114 W/m2
00:07 17.3 °C 15.1 °C 1018.2 hPa Calm   7.2 km/h 87% 0.0 mm 115 W/m2
00:08 17.3 °C 15.1 °C 1018.2 hPa Calm   7.2 km/h 87% 0.0 mm 114 W/m2
00:09 17.4 °C 15.2 °C 1018.2 hPa Calm   6.1 km/h 87% 0.0 mm 112 W/m2
00:10 17.4 °C 15.2 °C 1018.2 hPa ESE 3.5 km/h 6.1 km/h 87% 0.0 mm 106 W/m2
00:11 17.4 °C 15.2 °C 1018.2 hPa East 5.0 km/h 6.1 km/h 87% 0.0 mm 102 W/m2
00:12 17.4 °C 15.1 °C 1018.2 hPa East 3.5 km/h 6.1 km/h 86% 0.0 mm 99 W/m2
00:13 17.4 °C 15.1 °C 1018.2 hPa Calm   6.1 km/h 86% 0.0 mm 97 W/m2
00:14 17.4 °C 15.1 °C 1018.2 hPa Calm   6.1 km/h 86% 0.0 mm 96 W/m2
00:15 17.4 °C 15.1 °C 1018.5 hPa ESE 2.6 km/h 6.1 km/h 86% 0.0 mm 94 W/m2
00:16 17.4 °C 15.1 °C 1018.2 hPa ESE 1.1 km/h 6.1 km/h 86% 0.0 mm 92 W/m2
00:17 17.4 °C 15.1 °C 1018.2 hPa ESE 1.1 km/h 6.1 km/h 86% 0.0 mm 92 W/m2
00:18 17.4 °C 15.1 °C 1018.2 hPa Calm   6.1 km/h 86% 0.0 mm 90 W/m2
00:19 17.4 °C 15.1 °C 1018.5 hPa Calm   6.1 km/h 86% 0.0 mm 86 W/m2
00:20 17.4 °C 15.1 °C 1018.2 hPa ESE 3.5 km/h 6.1 km/h 86% 0.0 mm 78 W/m2
00:21 17.4 °C 15.1 °C 1018.2 hPa ESE 3.5 km/h 6.1 km/h 86% 0.0 mm 68 W/m2
00:22 17.4 °C 14.9 °C 1018.5 hPa ESE 3.5 km/h 9.7 km/h 85% 0.0 mm 59 W/m2
00:23 17.4 °C 14.9 °C 1018.5 hPa ESE 3.5 km/h 9.7 km/h 85% 0.0 mm 52 W/m2
00:24 17.4 °C 14.9 °C 1018.5 hPa Calm   9.7 km/h 85% 0.0 mm 49 W/m2
00:25 17.4 °C 14.9 °C 1018.5 hPa ESE 2.6 km/h 9.7 km/h 85% 0.0 mm 45 W/m2
00:26 17.4 °C 15.1 °C 1018.5 hPa ESE 7.2 km/h 13.4 km/h 86% 0.0 mm 41 W/m2
00:27 17.4 °C 15.1 °C 1018.5 hPa ESE 3.5 km/h 13.4 km/h 86% 0.0 mm 39 W/m2
00:28 17.4 °C 15.1 °C 1018.5 hPa ESE 3.5 km/h 13.4 km/h 86% 0.0 mm 39 W/m2
00:29 17.3 °C 14.9 °C 1018.5 hPa ESE 9.7 km/h 13.4 km/h 86% 0.0 mm 39 W/m2
00:30 17.3 °C 14.9 °C 1018.5 hPa ESE 5.0 km/h 13.4 km/h 86% 0.0 mm 40 W/m2
00:31 17.2 °C 14.8 °C 1018.5 hPa ESE 7.2 km/h 13.4 km/h 86% 0.0 mm 42 W/m2
00:32 17.2 °C 14.8 °C 1018.5 hPa ESE 7.2 km/h 13.4 km/h 86% 0.0 mm 43 W/m2
00:33 17.0 °C 14.7 °C 1018.5 hPa ESE 6.1 km/h 13.4 km/h 86% 0.0 mm 41 W/m2
00:34 17.0 °C 14.7 °C 1018.5 hPa ESE 8.7 km/h 13.4 km/h 86% 0.0 mm 36 W/m2
00:35 16.9 °C 14.7 °C 1018.5 hPa ESE 9.7 km/h 14.8 km/h 87% 0.0 mm 32 W/m2
00:36 16.9 °C 14.7 °C 1018.5 hPa ESE 8.7 km/h 14.8 km/h 87% 0.0 mm 29 W/m2
00:37 16.8 °C 14.6 °C 1018.5 hPa ESE 9.7 km/h 15.8 km/h 87% 0.0 mm 26 W/m2
00:38 16.7 °C 14.7 °C 1018.5 hPa East 7.2 km/h 15.8 km/h 88% 0.0 mm 24 W/m2
00:39 16.7 °C 14.7 °C 1018.5 hPa ESE 5.0 km/h 15.8 km/h 88% 0.0 mm 22 W/m2
00:40 16.6 °C 14.6 °C 1018.5 hPa ESE 7.2 km/h 15.8 km/h 88% 0.0 mm 20 W/m2
00:41 16.6 °C 14.6 °C 1018.5 hPa ESE 9.7 km/h 15.8 km/h 88% 0.0 mm 19 W/m2
00:42 16.5 °C 14.5 °C 1018.5 hPa East 7.2 km/h 15.8 km/h 88% 0.0 mm 18 W/m2
00:43 16.5 °C 14.5 °C 1018.5 hPa East 6.1 km/h 15.8 km/h 88% 0.0 mm 18 W/m2
00:44 16.5 °C 14.5 °C 1018.8 hPa East 7.2 km/h 15.8 km/h 88% 0.0 mm 16 W/m2
00:45 16.4 °C 14.6 °C 1018.5 hPa East 7.2 km/h 15.8 km/h 89% 0.0 mm 14 W/m2
00:46 16.4 °C 14.6 °C 1018.5 hPa East 8.7 km/h 15.8 km/h 89% 0.0 mm 13 W/m2
00:47 16.4 °C 14.6 °C 1018.5 hPa East 8.7 km/h 15.8 km/h 89% 0.0 mm 13 W/m2
00:48 16.4 °C 14.6 °C 1018.5 hPa East 3.5 km/h 12.2 km/h 89% 0.0 mm 14 W/m2
00:49 16.3 °C 14.5 °C 1018.5 hPa East 8.7 km/h 12.2 km/h 89% 0.0 mm 13 W/m2
00:50 16.3 °C 14.5 °C 1018.5 hPa East 6.1 km/h 12.2 km/h 89% 0.0 mm 12 W/m2
00:51 16.3 °C 14.5 °C 1018.5 hPa East 7.2 km/h 12.2 km/h 89% 0.0 mm 11 W/m2
00:52 16.3 °C 14.5 °C 1018.5 hPa East 8.7 km/h 12.2 km/h 89% 0.0 mm 10 W/m2
00:53 16.3 °C 14.5 °C 1018.5 hPa East 6.1 km/h 12.2 km/h 89% 0.0 mm 9 W/m2
00:54 16.3 °C 14.5 °C 1018.5 hPa East 5.0 km/h 12.2 km/h 89% 0.0 mm 8 W/m2
00:55 16.3 °C 14.5 °C 1018.5 hPa East 3.5 km/h 12.2 km/h 89% 0.0 mm 8 W/m2
00:56 16.3 °C 14.5 °C 1018.5 hPa ESE 7.2 km/h 12.2 km/h 89% 0.0 mm 7 W/m2
00:57 16.3 °C 14.5 °C 1018.5 hPa East 5.0 km/h 12.2 km/h 89% 0.0 mm 7 W/m2
00:58 16.2 °C 14.4 °C 1018.5 hPa East 7.2 km/h 11.1 km/h 89% 0.0 mm 7 W/m2
00:59 16.2 °C 14.2 °C 1018.5 hPa East 3.5 km/h 11.1 km/h 88% 0.0 mm 7 W/m2
01:00 16.2 °C 14.2 °C 1018.5 hPa East 5.0 km/h 11.1 km/h 88% 0.0 mm 6 W/m2
01:01 16.2 °C 14.2 °C 1018.5 hPa East 3.5 km/h 11.1 km/h 88% 0.0 mm 6 W/m2
01:02 16.2 °C 14.2 °C 1018.5 hPa East 6.1 km/h 11.1 km/h 88% 0.0 mm 6 W/m2
01:03 16.2 °C 14.2 °C 1018.5 hPa East 5.0 km/h 11.1 km/h 88% 0.0 mm 5 W/m2
01:04 16.2 °C 14.2 °C 1018.8 hPa East 8.7 km/h 11.1 km/h 88% 0.0 mm 5 W/m2
01:06 16.2 °C 14.2 °C 1018.5 hPa East 3.5 km/h 11.1 km/h 88% 0.0 mm 4 W/m2
01:07 16.2 °C 14.2 °C 1018.5 hPa East 3.5 km/h 11.1 km/h 88% 0.0 mm 4 W/m2
01:09 16.2 °C 14.2 °C 1018.5 hPa East 1.1 km/h 11.1 km/h 88% 0.0 mm 3 W/m2
01:10 16.2 °C 14.2 °C 1018.5 hPa East 3.5 km/h 11.1 km/h 88% 0.0 mm 3 W/m2
01:11 16.2 °C 14.2 °C 1018.8 hPa East 3.5 km/h 11.1 km/h 88% 0.0 mm 2 W/m2
01:12 16.2 °C 14.2 °C 1018.5 hPa East 3.5 km/h 11.1 km/h 88% 0.0 mm 2 W/m2
01:13 16.3 °C 14.3 °C 1018.8 hPa East 3.5 km/h 11.1 km/h 88% 0.0 mm 2 W/m2
01:14 16.3 °C 14.3 °C 1018.8 hPa East 5.0 km/h 11.1 km/h 88% 0.0 mm 2 W/m2
01:15 16.3 °C 14.3 °C 1018.8 hPa East 5.0 km/h 11.1 km/h 88% 0.0 mm 2 W/m2
01:16 16.3 °C 14.3 °C 1018.5 hPa East 2.6 km/h 7.2 km/h 88% 0.0 mm 2 W/m2
01:17 16.3 °C 14.3 °C 1018.5 hPa Calm   7.2 km/h 88% 0.0 mm 2 W/m2
01:18 16.3 °C 14.3 °C 1018.5 hPa East 2.6 km/h 8.7 km/h 88% 0.0 mm 2 W/m2
01:19 16.3 °C 14.3 °C 1018.5 hPa East 6.1 km/h 8.7 km/h 88% 0.0 mm 1 W/m2
01:20 16.3 °C 14.3 °C 1018.5 hPa East 5.0 km/h 8.7 km/h 88% 0.0 mm 1 W/m2
01:21 16.3 °C 14.3 °C 1018.5 hPa East 7.2 km/h 12.2 km/h 88% 0.0 mm 1 W/m2
01:22 16.3 °C 14.3 °C 1018.5 hPa East 7.2 km/h 12.2 km/h 88% 0.0 mm 1 W/m2
01:23 16.3 °C 14.3 °C 1018.5 hPa East 5.0 km/h 12.2 km/h 88% 0.0 mm 0 W/m2
01:24 16.3 °C 14.3 °C 1018.5 hPa East 5.0 km/h 12.2 km/h 88% 0.0 mm 0 W/m2
01:25 16.3 °C 14.3 °C 1018.5 hPa East 5.0 km/h 12.2 km/h 88% 0.0 mm 0 W/m2
01:26 16.3 °C 14.3 °C 1018.5 hPa Calm   12.2 km/h 88% 0.0 mm 0 W/m2
01:27 16.3 °C 14.3 °C 1018.8 hPa East 1.1 km/h 12.2 km/h 88% 0.0 mm 0 W/m2
01:28 16.3 °C 14.3 °C 1018.8 hPa East 3.5 km/h 12.2 km/h 88% 0.0 mm 0 W/m2
01:29 16.3 °C 14.3 °C 1018.8 hPa ESE 2.6 km/h 12.2 km/h 88% 0.0 mm 0 W/m2
01:30 16.3 °C 14.3 °C 1018.5 hPa ESE 5.0 km/h 12.2 km/h 88% 0.0 mm 0 W/m2
01:31 16.3 °C 14.3 °C 1018.8 hPa ESE 2.6 km/h 12.2 km/h 88% 0.0 mm 0 W/m2
01:32 16.3 °C 14.3 °C 1018.8 hPa Calm   12.2 km/h 88% 0.0 mm 0 W/m2
01:34 16.4 °C 14.4 °C 1018.5 hPa Calm   9.7 km/h 88% 0.0 mm 0 W/m2
01:35 16.4 °C 14.4 °C 1018.5 hPa Calm   9.7 km/h 88% 0.0 mm 0 W/m2
01:36 16.4 °C 14.4 °C 1018.5 hPa Calm   9.7 km/h 88% 0.0 mm 0 W/m2
01:37 16.4 °C 14.4 °C 1018.8 hPa ESE 1.1 km/h 11.1 km/h 88% 0.0 mm 0 W/m2
01:38 16.4 °C 14.4 °C 1018.5 hPa Calm   11.1 km/h 88% 0.0 mm 0 W/m2
01:42 16.3 °C 14.3 °C 1018.8 hPa Calm   11.1 km/h 88% 0.0 mm 0 W/m2
01:43 16.4 °C 14.4 °C 1018.8 hPa ESE 1.1 km/h 11.1 km/h 88% 0.0 mm 0 W/m2
01:44 16.4 °C 14.4 °C 1018.5 hPa ESE 1.1 km/h 11.1 km/h 88% 0.0 mm 0 W/m2
01:45 16.4 °C 14.4 °C 1018.8 hPa Calm   11.1 km/h 88% 0.0 mm 0 W/m2
01:46 16.3 °C 14.3 °C 1018.8 hPa Calm   11.1 km/h 88% 0.0 mm 0 W/m2
01:48 16.3 °C 14.3 °C 1018.8 hPa Calm   6.1 km/h 88% 0.0 mm 0 W/m2
01:49 16.3 °C 14.3 °C 1018.8 hPa Calm   6.1 km/h 88% 0.0 mm 0 W/m2
01:50 16.3 °C 14.3 °C 1018.8 hPa Calm   6.1 km/h 88% 0.0 mm 0 W/m2
01:51 16.3 °C 14.3 °C 1018.8 hPa Calm   6.1 km/h 88% 0.0 mm 0 W/m2
01:52 16.3 °C 14.3 °C 1018.8 hPa Calm   6.1 km/h 88% 0.0 mm 0 W/m2
01:53 16.3 °C 14.3 °C 1018.8 hPa Calm   6.1 km/h 88% 0.0 mm 0 W/m2
01:54 16.2 °C 14.2 °C 1018.8 hPa East 6.1 km/h 11.1 km/h 88% 0.0 mm 4 W/m2
01:55 16.3 °C 14.3 °C 1018.8 hPa Calm   6.1 km/h 88% 0.0 mm 0 W/m2
01:56 16.3 °C 14.3 °C 1018.8 hPa Calm   1.1 km/h 88% 0.0 mm 0 W/m2
01:57 16.3 °C 14.3 °C 1018.8 hPa Calm   1.1 km/h 88% 0.0 mm 0 W/m2
01:58 16.3 °C 14.3 °C 1018.8 hPa Calm   1.1 km/h 88% 0.0 mm 0 W/m2
01:59 16.3 °C 14.3 °C 1018.8 hPa Calm   1.1 km/h 88% 0.0 mm 0 W/m2
02:00 16.3 °C 14.3 °C 1018.8 hPa Calm   1.1 km/h 88% 0.0 mm 0 W/m2
02:01 16.3 °C 14.3 °C 1018.8 hPa Calm   1.1 km/h 88% 0.0 mm 0 W/m2
02:03 16.3 °C 14.3 °C 1018.8 hPa Calm   1.1 km/h 88% 0.0 mm 0 W/m2
02:04 16.3 °C 14.3 °C 1018.8 hPa Calm   2.6 km/h 88% 0.0 mm 0 W/m2
02:05 16.3 °C 14.3 °C 1018.8 hPa Calm   2.6 km/h 88% 0.0 mm 0 W/m2
02:06 16.3 °C 14.3 °C 1019.2 hPa Calm   2.6 km/h 88% 0.0 mm 0 W/m2
02:07 16.3 °C 14.3 °C 1018.8 hPa Calm   2.6 km/h 88% 0.0 mm 0 W/m2
02:08 16.3 °C 14.3 °C 1018.8 hPa Calm   2.6 km/h 88% 0.0 mm 0 W/m2
02:09 16.3 °C 14.3 °C 1019.2 hPa Calm   2.6 km/h 88% 0.0 mm 0 W/m2
02:10 16.3 °C 14.3 °C 1018.8 hPa Calm   2.6 km/h 88% 0.0 mm 0 W/m2
02:11 16.3 °C 14.3 °C 1019.2 hPa Calm   2.6 km/h 88% 0.0 mm 0 W/m2
02:13 16.3 °C 14.3 °C 1018.8 hPa Calm   2.6 km/h 88% 0.0 mm 0 W/m2
02:15 16.3 °C 14.3 °C 1019.2 hPa Calm     88% 0.0 mm 0 W/m2
02:16 16.3 °C 14.5 °C 1019.2 hPa Calm     89% 0.0 mm 0 W/m2
02:18 16.3 °C 14.5 °C 1018.8 hPa Calm     89% 0.0 mm 0 W/m2
02:19 16.3 °C 14.3 °C 1018.8 hPa ESE 1.1 km/h 9.7 km/h 88% 0.0 mm 0 W/m2
02:21 16.3 °C 14.5 °C 1018.8 hPa Calm   1.1 km/h 89% 0.0 mm 0 W/m2
02:22 16.3 °C 14.5 °C 1019.2 hPa Calm   1.1 km/h 89% 0.0 mm 0 W/m2
02:23 16.3 °C 14.5 °C 1019.2 hPa Calm   1.1 km/h 89% 0.0 mm 0 W/m2
02:24 16.3 °C 14.5 °C 1019.2 hPa Calm   1.1 km/h 89% 0.0 mm 0 W/m2
02:25 16.3 °C 14.3 °C 1018.8 hPa Calm   11.1 km/h 88% 0.0 mm 0 W/m2
02:26 16.3 °C 14.5 °C 1018.8 hPa Calm   1.1 km/h 89% 0.0 mm 0 W/m2
02:28 16.3 °C 14.5 °C 1019.2 hPa Calm   1.1 km/h 89% 0.0 mm 0 W/m2
02:29 16.4 °C 14.6 °C 1019.2 hPa Calm   1.1 km/h 89% 0.0 mm 0 W/m2
02:33 16.3 °C 14.3 °C 1018.8 hPa Calm   6.1 km/h 88% 0.0 mm 0 W/m2
02:34 16.4 °C 14.6 °C 1019.2 hPa Calm     89% 0.0 mm 0 W/m2
02:37 16.4 °C 14.6 °C 1019.2 hPa Calm     89% 0.0 mm 0 W/m2
02:38 16.4 °C 14.6 °C 1019.2 hPa NE 1.1 km/h 5.0 km/h 89% 0.0 mm 0 W/m2
02:40 16.4 °C 14.6 °C 1019.2 hPa NE 1.1 km/h 5.0 km/h 89% 0.0 mm 0 W/m2
02:41 16.4 °C 14.6 °C 1019.2 hPa Calm   5.0 km/h 89% 0.0 mm 0 W/m2
02:42 16.4 °C 14.6 °C 1019.2 hPa Calm   5.0 km/h 89% 0.0 mm 0 W/m2
02:43 16.4 °C 14.6 °C 1019.2 hPa Calm   5.0 km/h 89% 0.0 mm 0 W/m2
02:44 16.4 °C 14.6 °C 1019.2 hPa Calm   5.0 km/h 89% 0.0 mm 0 W/m2
02:46 16.4 °C 14.6 °C 1019.2 hPa Calm   5.0 km/h 89% 0.0 mm 0 W/m2
02:47 16.4 °C 14.6 °C 1019.2 hPa Calm   5.0 km/h 89% 0.0 mm 0 W/m2
02:48 16.3 °C 14.3 °C 1018.8 hPa Calm   1.1 km/h 88% 0.0 mm 0 W/m2
02:50 16.3 °C 14.7 °C 1019.2 hPa NE 6.1 km/h 11.1 km/h 90% 0.0 mm 0 W/m2
02:53 16.2 °C 14.6 °C 1019.2 hPa NE 2.6 km/h 11.1 km/h 90% 0.0 mm 0 W/m2
02:55 16.2 °C 14.6 °C 1019.5 hPa NE 2.6 km/h 11.1 km/h 90% 0.0 mm 0 W/m2
02:58 16.1 °C 14.6 °C 1019.5 hPa ENE 6.1 km/h 11.1 km/h 91% 0.0 mm 0 W/m2
02:59 16.1 °C 14.6 °C 1019.2 hPa ENE 6.1 km/h 11.1 km/h 91% 0.0 mm 0 W/m2
03:00 16.3 °C 14.3 °C 1018.8 hPa Calm     88% 0.0 mm 0 W/m2
03:02 16.0 °C 14.6 °C 1019.5 hPa Calm   11.1 km/h 91% 0.0 mm 0 W/m2
03:06 16.3 °C 14.5 °C 1018.8 hPa Calm     89% 0.0 mm 0 W/m2
03:07 15.9 °C 14.6 °C 1019.5 hPa Calm   11.1 km/h 92% 0.0 mm 0 W/m2
03:08 15.9 °C 14.6 °C 1019.5 hPa East 1.1 km/h 11.1 km/h 92% 0.0 mm 0 W/m2
03:09 15.9 °C 14.6 °C 1019.5 hPa East 1.1 km/h 9.7 km/h 92% 0.0 mm 0 W/m2
03:10 15.9 °C 14.6 °C 1019.5 hPa East 1.1 km/h 9.7 km/h 92% 0.0 mm 0 W/m2
03:11 15.9 °C 14.6 °C 1019.5 hPa East 2.6 km/h 9.7 km/h 92% 0.0 mm 0 W/m2
03:13 16.3 °C 14.5 °C 1019.2 hPa Calm   1.1 km/h 89% 0.0 mm 0 W/m2
03:14 15.9 °C 14.6 °C 1019.5 hPa Calm   7.2 km/h 92% 0.0 mm 0 W/m2
03:18 16.4 °C 14.6 °C 1019.2 hPa Calm     89% 0.0 mm 0 W/m2
03:21 15.9 °C 14.6 °C 1019.5 hPa Calm   5.0 km/h 92% 0.0 mm 0 W/m2
03:23 15.9 °C 14.6 °C 1019.5 hPa Calm   2.6 km/h 92% 0.0 mm 0 W/m2
03:25 16.4 °C 14.6 °C 1019.2 hPa NE 3.5 km/h 5.0 km/h 89% 0.0 mm 0 W/m2
03:31 16.4 °C 14.6 °C 1019.2 hPa Calm   5.0 km/h 89% 0.0 mm 0 W/m2
03:33 15.9 °C 14.6 °C 1019.9 hPa Calm     92% 0.0 mm 0 W/m2
03:37 16.3 °C 14.7 °C 1019.2 hPa NE 6.1 km/h 11.1 km/h 90% 0.0 mm 0 W/m2
03:42 16.1 °C 14.4 °C 1019.2 hPa ENE 7.2 km/h 11.1 km/h 90% 0.0 mm 0 W/m2
03:47 16.0 °C 14.6 °C 1019.5 hPa ENE 3.5 km/h 11.1 km/h 91% 0.0 mm 0 W/m2
03:52 15.9 °C 14.6 °C 1019.5 hPa East 3.5 km/h 11.1 km/h 92% 0.0 mm 0 W/m2
03:57 16.0 °C 14.6 °C 1020.2 hPa Calm     91% 0.0 mm 0 W/m2
03:58 15.9 °C 14.8 °C 1019.5 hPa Calm   9.7 km/h 93% 0.0 mm 0 W/m2
04:03 15.9 °C 14.6 °C 1019.5 hPa Calm   7.2 km/h 92% 0.0 mm 0 W/m2
04:08 15.9 °C 14.6 °C 1019.9 hPa Calm   2.6 km/h 92% 0.0 mm 0 W/m2
04:13 15.9 °C 14.6 °C 1019.5 hPa Calm     92% 0.0 mm 0 W/m2
04:18 15.9 °C 14.8 °C 1019.5 hPa Calm     93% 0.0 mm 0 W/m2
04:23 15.9 °C 14.6 °C 1019.9 hPa Calm     92% 0.0 mm 0 W/m2
04:28 15.9 °C 14.6 °C 1019.9 hPa Calm     92% 0.0 mm 0 W/m2
04:33 16.0 °C 14.6 °C 1019.9 hPa Calm     91% 0.0 mm 0 W/m2
04:38 16.0 °C 14.7 °C 1019.9 hPa Calm     92% 0.0 mm 0 W/m2
04:44 16.0 °C 14.6 °C 1019.9 hPa Calm     91% 0.0 mm 0 W/m2
04:49 16.0 °C 14.7 °C 1019.9 hPa Calm     92% 0.0 mm 0 W/m2
04:54 16.0 °C 14.7 °C 1020.2 hPa Calm     92% 0.0 mm 0 W/m2
05:00 16.0 °C 14.7 °C 1020.2 hPa Calm     92% 0.0 mm 0 W/m2
05:06 16.2 °C 14.9 °C 1020.2 hPa Calm     92% 0.0 mm 0 W/m2
05:12 16.0 °C 14.7 °C 1020.2 hPa Calm     92% 0.0 mm 0 W/m2
05:18 16.1 °C 14.8 °C 1020.2 hPa Calm     92% 0.0 mm 0 W/m2
05:24 15.8 °C 14.7 °C 1019.9 hPa Calm     93% 0.0 mm 0 W/m2
05:30 15.9 °C 14.8 °C 1020.2 hPa Calm     93% 0.0 mm 0 W/m2
05:36 15.8 °C 14.8 °C 1019.9 hPa Calm     94% 0.0 mm 0 W/m2
05:42 16.2 °C 15.1 °C 1020.2 hPa Calm     93% 0.0 mm 0 W/m2
05:48 15.8 °C 14.8 °C 1019.9 hPa Calm     94% 0.0 mm 0 W/m2
05:54 16.1 °C 15.0 °C 1019.9 hPa Calm     93% 0.0 mm 0 W/m2
06:00 15.8 °C 15.0 °C 1019.9 hPa Calm     95% 0.0 mm 0 W/m2
06:06 16.2 °C 15.2 °C 1019.9 hPa Calm     94% 0.0 mm 0 W/m2
06:12 15.7 °C 14.9 °C 1019.9 hPa Calm     95% 0.0 mm 0 W/m2
06:18 15.3 °C 14.7 °C 1019.9 hPa Calm     96% 0.0 mm 0 W/m2
06:24 15.6 °C 15.0 °C 1019.9 hPa Calm     96% 0.0 mm 0 W/m2
06:30 15.9 °C 15.3 °C 1019.9 hPa Calm     96% 0.0 mm 0 W/m2
06:36 15.6 °C 15.0 °C 1019.5 hPa Calm     96% 0.0 mm 0 W/m2
06:42 15.9 °C 15.3 °C 1019.9 hPa Calm     96% 0.0 mm 0 W/m2
06:48 15.5 °C 14.9 °C 1019.5 hPa Calm     96% 0.0 mm 0 W/m2
06:54 15.7 °C 15.2 °C 1019.5 hPa Calm     97% 0.0 mm 0 W/m2
07:00 15.5 °C 15.1 °C 1019.5 hPa Calm     97% 0.0 mm 0 W/m2
07:06 15.2 °C 14.7 °C 1019.5 hPa Calm     97% 0.0 mm 0 W/m2
07:12 15.6 °C 15.1 °C 1019.5 hPa Calm   3.5 km/h 97% 0.0 mm 0 W/m2
07:18 15.9 °C 15.4 °C 1019.5 hPa Calm   1.1 km/h 97% 0.0 mm 0 W/m2
07:24 15.5 °C 15.1 °C 1019.5 hPa Calm     97% 0.0 mm 0 W/m2
07:30 15.5 °C 15.1 °C 1019.2 hPa Calm     97% 0.0 mm 0 W/m2
07:36 15.5 °C 15.1 °C 1019.2 hPa Calm     97% 0.0 mm 0 W/m2
07:42 15.3 °C 14.8 °C 1018.8 hPa Calm     97% 0.0 mm 0 W/m2
07:48 15.4 °C 14.9 °C 1018.8 hPa Calm     97% 0.0 mm 0 W/m2
07:54 15.4 °C 14.9 °C 1018.8 hPa Calm     97% 0.0 mm 0 W/m2
08:00 15.3 °C 15.0 °C 1018.8 hPa Calm     98% 0.0 mm 0 W/m2
08:06 15.1 °C 14.6 °C 1018.8 hPa Calm     97% 0.0 mm 0 W/m2
08:12 15.1 °C 14.8 °C 1018.8 hPa Calm     98% 0.0 mm 0 W/m2
08:18 15.1 °C 14.6 °C 1018.8 hPa Calm     97% 0.0 mm 0 W/m2
08:24 15.1 °C 14.6 °C 1018.8 hPa Calm     97% 0.0 mm 0 W/m2
08:30 15.2 °C 14.7 °C 1018.8 hPa Calm     97% 0.0 mm 0 W/m2
08:36 15.1 °C 14.8 °C 1018.8 hPa Calm     98% 0.0 mm 0 W/m2
08:42 15.1 °C 14.8 °C 1018.5 hPa Calm     98% 0.0 mm 0 W/m2
08:48 15.1 °C 14.8 °C 1018.5 hPa Calm     98% 0.0 mm 0 W/m2
08:54 15.1 °C 14.8 °C 1018.2 hPa Calm     98% 0.0 mm 0 W/m2
09:00 15.0 °C 14.7 °C 1018.2 hPa Calm     98% 0.0 mm 0 W/m2
09:06 14.9 °C 14.8 °C 1018.2 hPa Calm     99% 0.0 mm 0 W/m2
09:12 14.8 °C 14.7 °C 1018.2 hPa Calm     99% 0.0 mm 0 W/m2
09:18 14.8 °C 14.7 °C 1018.2 hPa Calm     99% 0.0 mm 0 W/m2
09:24 14.8 °C 14.7 °C 1018.2 hPa Calm     99% 0.0 mm 0 W/m2
09:30 14.7 °C 14.6 °C 1018.2 hPa Calm     99% 0.0 mm 0 W/m2
09:36 14.6 °C 14.4 °C 1018.2 hPa Calm     99% 0.0 mm 0 W/m2
09:42 14.4 °C 14.3 °C 1017.8 hPa Calm     99% 0.0 mm 0 W/m2
09:48 14.4 °C 14.3 °C 1017.8 hPa Calm     99% 0.0 mm 0 W/m2
09:54 14.4 °C 14.3 °C 1017.8 hPa Calm     99% 0.0 mm 0 W/m2
10:00 14.1 °C 13.9 °C 1017.5 hPa Calm     99% 0.0 mm 0 W/m2
10:06 13.9 °C 13.8 °C 1017.2 hPa Calm     99% 0.0 mm 0 W/m2
10:18 14.1 °C 13.9 °C 1017.2 hPa Calm     99% 0.0 mm 0 W/m2
10:24 13.9 °C 13.8 °C 1017.2 hPa Calm     99% 0.0 mm 0 W/m2
10:30 13.9 °C 13.8 °C 1016.8 hPa Calm     99% 0.0 mm 0 W/m2
10:36 13.7 °C 13.6 °C 1016.8 hPa Calm     99% 0.0 mm 0 W/m2
10:42 13.7 °C 13.6 °C 1016.8 hPa Calm     99% 0.0 mm 0 W/m2
10:48 13.9 °C 13.8 °C 1016.8 hPa Calm     99% 0.0 mm 0 W/m2
10:54 13.8 °C 13.7 °C 1016.5 hPa Calm     99% 0.0 mm 0 W/m2
11:00 13.6 °C 13.4 °C 1016.5 hPa Calm     99% 0.0 mm 0 W/m2
11:06 13.5 °C 13.3 °C 1016.5 hPa Calm     99% 0.0 mm 0 W/m2
11:12 13.6 °C 13.4 °C 1016.5 hPa Calm     99% 0.0 mm 0 W/m2
11:18 13.6 °C 13.4 °C 1016.5 hPa Calm     99% 0.0 mm 0 W/m2
11:24 13.5 °C 13.3 °C 1016.1 hPa Calm     99% 0.0 mm 0 W/m2
11:30 13.4 °C 13.3 °C 1016.5 hPa Calm     99% 0.0 mm 0 W/m2
11:36 13.4 °C 13.3 °C 1016.1 hPa Calm     99% 0.0 mm 0 W/m2
11:42 13.7 °C 13.6 °C 1016.1 hPa Calm     99% 0.0 mm 0 W/m2
11:48 13.8 °C 13.7 °C 1015.8 hPa Calm     99% 0.0 mm 0 W/m2
11:54 13.8 °C 13.7 °C 1016.1 hPa Calm     99% 0.0 mm 0 W/m2
12:00 13.7 °C 13.6 °C 1015.8 hPa Calm     99% 0.0 mm 0 W/m2
12:06 13.7 °C 13.6 °C 1016.1 hPa Calm     99% 0.0 mm 0 W/m2
12:12 13.8 °C 13.7 °C 1016.1 hPa Calm     99% 0.0 mm 0 W/m2
12:18 13.8 °C 13.7 °C 1015.8 hPa Calm     99% 0.0 mm 0 W/m2
12:24 13.9 °C 13.8 °C 1016.1 hPa Calm   3.5 km/h 99% 0.0 mm 0 W/m2
12:30 13.8 °C 13.7 °C 1016.1 hPa Calm   3.5 km/h 99% 0.0 mm 0 W/m2
12:36 13.8 °C 13.7 °C 1016.1 hPa Calm     99% 0.0 mm 0 W/m2
12:42 14.0 °C 13.8 °C 1015.8 hPa Calm     99% 0.0 mm 0 W/m2
12:48 14.1 °C 13.9 °C 1016.1 hPa Calm   6.1 km/h 99% 0.0 mm 0 W/m2
13:00 14.1 °C 13.9 °C 1016.1 hPa Calm   9.7 km/h 99% 0.0 mm 0 W/m2
13:06 14.1 °C 13.9 °C 1016.1 hPa NNW 5.0 km/h 9.7 km/h 99% 0.0 mm 0 W/m2
13:08 14.1 °C 13.9 °C 1015.8 hPa NNW 1.1 km/h 9.7 km/h 99% 0.0 mm 0 W/m2
13:14 14.2 °C 14.1 °C 1016.1 hPa North 6.1 km/h 9.7 km/h 99% 0.0 mm 0 W/m2
13:20 14.3 °C 14.2 °C 1016.1 hPa North 6.1 km/h 9.7 km/h 99% 0.0 mm 0 W/m2
13:26 14.4 °C 14.3 °C 1016.1 hPa Calm   8.7 km/h 99% 0.0 mm 0 W/m2
13:32 14.4 °C 14.3 °C 1015.8 hPa Calm   8.7 km/h 99% 0.0 mm 0 W/m2
13:38 14.3 °C 14.2 °C 1015.8 hPa Calm     99% 0.0 mm 0 W/m2
13:44 14.3 °C 14.2 °C 1015.8 hPa NNW 3.5 km/h 8.7 km/h 99% 0.0 mm 0 W/m2
13:50 14.3 °C 14.2 °C 1015.8 hPa NNW 1.1 km/h 8.7 km/h 99% 0.0 mm 0 W/m2
13:56 14.2 °C 14.1 °C 1015.8 hPa Calm   8.7 km/h 99% 0.0 mm 0 W/m2
14:02 14.2 °C 14.1 °C 1015.8 hPa Calm   5.0 km/h 99% 0.0 mm 0 W/m2
14:08 14.1 °C 13.9 °C 1015.5 hPa Calm   5.0 km/h 99% 0.0 mm 0 W/m2
14:14 14.1 °C 13.9 °C 1015.8 hPa Calm   3.5 km/h 99% 0.0 mm 2 W/m2
14:20 14.1 °C 13.9 °C 1015.8 hPa Calm   5.0 km/h 99% 0.0 mm 6 W/m2
14:26 14.1 °C 13.9 °C 1015.8 hPa NNW 3.5 km/h 7.2 km/h 99% 0.0 mm 10 W/m2
14:30 14.2 °C 14.1 °C 1015.8 hPa NNW 3.5 km/h 7.2 km/h 99% 0.0 mm 13 W/m2
14:42 14.3 °C 14.2 °C 1015.8 hPa Calm   8.7 km/h 99% 0.0 mm 25 W/m2
14:48 14.5 °C 14.3 °C 1015.8 hPa Calm   7.2 km/h 99% 0.0 mm 30 W/m2
14:54 14.6 °C 14.4 °C 1015.8 hPa Calm   5.0 km/h 99% 0.0 mm 43 W/m2
15:00 14.8 °C 14.7 °C 1015.8 hPa NW 2.6 km/h 7.2 km/h 99% 0.0 mm 97 W/m2
15:06 15.0 °C 14.7 °C 1015.5 hPa NW 1.1 km/h 8.7 km/h 98% 0.0 mm 88 W/m2
15:12 15.3 °C 15.0 °C 1015.8 hPa NNW 6.1 km/h 8.7 km/h 98% 0.0 mm 115 W/m2
15:18 15.7 °C 15.2 °C 1015.8 hPa NW 3.5 km/h 8.7 km/h 97% 0.0 mm 200 W/m2
15:24 16.4 °C 15.6 °C 1015.8 hPa Calm   8.7 km/h 95% 0.0 mm 181 W/m2
15:30 16.9 °C 15.8 °C 1015.8 hPa NNW 2.6 km/h 9.7 km/h 93% 0.0 mm 229 W/m2
15:36 17.5 °C 15.7 °C 1015.8 hPa Calm   9.7 km/h 89% 0.0 mm 269 W/m2
15:42 17.9 °C 15.3 °C 1015.8 hPa North 2.6 km/h 8.7 km/h 85% 0.3 mm 267 W/m2
15:48 18.6 °C 16.1 °C 1015.8 hPa Calm   8.7 km/h 85% 0.3 mm 291 W/m2
15:54 18.9 °C 15.9 °C 1015.8 hPa Calm   2.6 km/h 83% 0.3 mm 167 W/m2
16:00 18.9 °C 15.8 °C 1015.8 hPa Calm     82% 0.3 mm 97 W/m2
16:06 18.3 °C 15.4 °C 1015.8 hPa Calm     83% 0.3 mm 108 W/m2
16:12 18.6 °C 16.2 °C 1015.5 hPa NW 6.1 km/h 9.7 km/h 86% 0.3 mm 329 W/m2
16:18 19.4 °C 16.7 °C 1015.8 hPa NW 1.1 km/h 9.7 km/h 84% 0.3 mm 420 W/m2
16:24 20.4 °C 17.1 °C 1015.5 hPa NW 8.7 km/h 11.1 km/h 81% 0.3 mm 398 W/m2
16:30 21.0 °C 16.8 °C 1015.5 hPa NNW 6.1 km/h 11.1 km/h 77% 0.3 mm 369 W/m2
16:36 20.8 °C 16.4 °C 1015.8 hPa NW 3.5 km/h 12.2 km/h 76% 0.3 mm 182 W/m2
16:42 20.5 °C 16.6 °C 1015.5 hPa NW 2.6 km/h 9.7 km/h 78% 0.0 mm 221 W/m2
16:48 20.4 °C 16.4 °C 1015.5 hPa NNW 5.0 km/h 9.7 km/h 78% 0.0 mm 268 W/m2
16:54 20.6 °C 16.8 °C 1015.5 hPa NW 2.6 km/h 8.7 km/h 79% 0.0 mm 321 W/m2
17:00 21.3 °C 17.3 °C 1015.5 hPa NNW 3.5 km/h 7.2 km/h 78% 0.0 mm 323 W/m2
17:06 21.9 °C 17.1 °C 1015.5 hPa North 7.2 km/h 9.7 km/h 74% 0.0 mm 377 W/m2
17:12 22.3 °C 16.8 °C 1015.5 hPa Calm   9.7 km/h 71% 0.0 mm 259 W/m2
17:18 22.6 °C 17.1 °C 1015.8 hPa North 7.2 km/h 11.1 km/h 71% 0.0 mm 254 W/m2
17:24 22.0 °C 16.5 °C 1015.5 hPa NNW 6.1 km/h 13.4 km/h 71% 0.0 mm 249 W/m2
17:30 22.1 °C 17.1 °C 1015.5 hPa NNW 5.0 km/h 13.4 km/h 73% 0.0 mm 247 W/m2
17:36 22.1 °C 17.1 °C 1015.5 hPa NW 2.6 km/h 9.7 km/h 73% 0.0 mm 265 W/m2
17:42 22.1 °C 16.8 °C 1015.5 hPa NNW 5.0 km/h 9.7 km/h 72% 0.0 mm 346 W/m2
17:48 22.7 °C 16.9 °C 1015.5 hPa Calm   11.1 km/h 70% 0.0 mm 479 W/m2
17:54 23.3 °C 17.1 °C 1015.5 hPa NNW 7.2 km/h 11.1 km/h 68% 0.0 mm 340 W/m2
18:00 22.9 °C 17.4 °C 1015.5 hPa NNW 9.7 km/h 13.4 km/h 71% 0.0 mm 239 W/m2
18:06 22.6 °C 17.1 °C 1015.5 hPa NNW 2.6 km/h 13.4 km/h 71% 0.0 mm 228 W/m2
18:12 22.6 °C 17.1 °C 1015.1 hPa NNW 6.1 km/h 13.4 km/h 71% 0.0 mm 298 W/m2
18:18 23.8 °C 18.0 °C 1015.5 hPa NNW 6.1 km/h 13.4 km/h 70% 0.0 mm 257 W/m2
18:24 23.5 °C 17.3 °C 1015.5 hPa NW 5.0 km/h 12.2 km/h 68% 0.0 mm 220 W/m2
18:30 23.2 °C 17.2 °C 1015.5 hPa North 6.1 km/h 13.4 km/h 69% 0.0 mm 258 W/m2
18:36 23.3 °C 17.6 °C 1015.1 hPa North 7.2 km/h 14.8 km/h 70% 0.0 mm 616 W/m2
18:42 23.6 °C 17.8 °C 1015.1 hPa NNE 6.1 km/h 14.8 km/h 70% 0.0 mm 394 W/m2
18:48 23.5 °C 17.1 °C 1015.1 hPa North 5.0 km/h 15.8 km/h 67% 0.0 mm 336 W/m2
18:54 24.1 °C 17.4 °C 1014.8 hPa North 5.0 km/h 15.8 km/h 66% 0.0 mm 423 W/m2
19:00 24.9 °C 18.1 °C 1014.8 hPa North 6.1 km/h 15.8 km/h 66% 0.0 mm 484 W/m2
19:06 25.4 °C 17.1 °C 1014.8 hPa NNW 6.1 km/h 14.8 km/h 60% 0.0 mm 719 W/m2
19:12 25.1 °C 17.1 °C 1014.8 hPa North 9.7 km/h 15.8 km/h 61% 0.0 mm 522 W/m2
19:18 25.6 °C 17.6 °C 1014.8 hPa North 12.2 km/h 17.2 km/h 61% 0.0 mm 411 W/m2
19:24 24.6 °C 17.3 °C 1014.8 hPa North 9.7 km/h 18.3 km/h 64% 0.0 mm 281 W/m2
19:30 23.9 °C 17.2 °C 1014.8 hPa North 8.7 km/h 17.2 km/h 66% 0.0 mm 164 W/m2
19:36 23.4 °C 17.2 °C 1014.8 hPa North 9.7 km/h 14.8 km/h 68% 0.0 mm 261 W/m2
19:42 23.6 °C 17.6 °C 1014.8 hPa North 12.2 km/h 15.8 km/h 69% 0.0 mm 293 W/m2
19:48 23.4 °C 17.6 °C 1014.4 hPa North 7.2 km/h 15.8 km/h 70% 0.0 mm 271 W/m2
19:54 23.3 °C 18.2 °C 1014.4 hPa North 6.1 km/h 12.2 km/h 73% 0.0 mm 262 W/m2
20:00 23.0 °C 17.9 °C 1014.4 hPa North 5.0 km/h 15.8 km/h 73% 0.0 mm 315 W/m2
20:06 23.1 °C 18.2 °C 1014.1 hPa North 17.2 km/h 19.5 km/h 74% 0.0 mm 293 W/m2
20:12 22.7 °C 17.4 °C 1014.4 hPa NNE 9.7 km/h 19.5 km/h 72% 0.0 mm 275 W/m2
20:18 22.3 °C 16.6 °C 1014.1 hPa North 9.7 km/h 21.9 km/h 70% 0.0 mm 224 W/m2
20:24 22.3 °C 16.6 °C 1014.4 hPa North 7.2 km/h 20.9 km/h 70% 0.0 mm 245 W/m2
20:30 22.2 °C 16.3 °C 1014.1 hPa North 5.0 km/h 17.2 km/h 69% 0.0 mm 193 W/m2
20:36 22.3 °C 16.3 °C 1014.1 hPa North 8.7 km/h 13.4 km/h 69% 0.0 mm 219 W/m2
20:42 22.3 °C 16.6 °C 1014.1 hPa North 11.1 km/h 18.3 km/h 70% 0.0 mm 235 W/m2
20:48 22.1 °C 16.6 °C 1013.8 hPa NNE 9.7 km/h 18.3 km/h 71% 0.0 mm 278 W/m2
20:54 22.1 °C 16.4 °C 1013.8 hPa NNE 11.1 km/h 18.3 km/h 70% 0.0 mm 328 W/m2
21:00 22.3 °C 16.8 °C 1013.8 hPa North 11.1 km/h 17.2 km/h 71% 0.0 mm 345 W/m2
21:06 22.3 °C 16.8 °C 1013.4 hPa North 7.2 km/h 17.2 km/h 71% 0.0 mm 328 W/m2
21:12 22.8 °C 16.8 °C 1013.4 hPa NNE 7.2 km/h 18.3 km/h 69% 0.0 mm 397 W/m2
21:18 23.2 °C 16.8 °C 1013.4 hPa NNE 9.7 km/h 18.3 km/h 67% 0.0 mm 347 W/m2
21:30 23.0 °C 16.6 °C 1013.1 hPa NNE 6.1 km/h 18.3 km/h 67% 0.0 mm 264 W/m2
21:36 22.9 °C 16.2 °C 1013.1 hPa NNE 11.1 km/h 18.3 km/h 66% 0.0 mm 251 W/m2
21:42 22.8 °C 16.8 °C 1012.8 hPa North 6.1 km/h 17.2 km/h 69% 0.0 mm 219 W/m2
21:48 22.7 °C 16.5 °C 1012.8 hPa North 7.2 km/h 14.8 km/h 68% 0.0 mm 207 W/m2
21:54 22.6 °C 16.7 °C 1012.8 hPa NNW 6.1 km/h 14.8 km/h 69% 0.0 mm 232 W/m2
22:00 22.8 °C 17.3 °C 1012.4 hPa NNW 7.2 km/h 13.4 km/h 71% 0.0 mm 336 W/m2
22:06 23.2 °C 17.2 °C 1012.1 hPa NNE 8.7 km/h 15.8 km/h 69% 0.0 mm 308 W/m2
22:12 23.1 °C 17.1 °C 1012.4 hPa NNE 7.2 km/h 15.8 km/h 69% 0.0 mm 273 W/m2
22:18 22.8 °C 17.1 °C 1012.1 hPa North 5.0 km/h 18.3 km/h 70% 0.0 mm 164 W/m2
22:24 22.4 °C 16.9 °C 1012.1 hPa North 8.7 km/h 14.8 km/h 71% 0.0 mm 131 W/m2
22:30 22.1 °C 16.8 °C 1011.7 hPa North 7.2 km/h 17.2 km/h 72% 0.0 mm 121 W/m2
22:36 22.1 °C 17.1 °C 1011.7 hPa North 8.7 km/h 17.2 km/h 73% 0.0 mm 125 W/m2
22:42 22.0 °C 16.7 °C 1011.7 hPa NNW 8.7 km/h 14.8 km/h 72% 0.0 mm 109 W/m2
22:48 21.9 °C 16.8 °C 1011.7 hPa NNW 9.7 km/h 17.2 km/h 73% 0.0 mm 103 W/m2
22:54 21.8 °C 17.0 °C 1011.7 hPa NNW 7.2 km/h 17.2 km/h 74% 0.0 mm 100 W/m2
23:00 21.8 °C 17.0 °C 1012.1 hPa NNW 9.7 km/h 14.8 km/h 74% 0.0 mm 108 W/m2
23:06 21.8 °C 17.0 °C 1011.7 hPa NNW 6.1 km/h 14.8 km/h 74% 0.0 mm 122 W/m2
23:12 21.8 °C 16.8 °C 1011.7 hPa North 6.1 km/h 12.2 km/h 73% 0.0 mm 124 W/m2
23:18 21.9 °C 16.8 °C 1011.7 hPa NNW 3.5 km/h 12.2 km/h 73% 0.0 mm 123 W/m2
23:24 21.9 °C 17.1 °C 1011.7 hPa NNW 7.2 km/h 14.8 km/h 74% 0.0 mm 106 W/m2
23:30 21.9 °C 17.1 °C 1011.7 hPa NNW 6.1 km/h 14.8 km/h 74% 0.0 mm 95 W/m2
23:36 21.8 °C 17.0 °C 1011.4 hPa NNW 8.7 km/h 11.1 km/h 74% 0.0 mm 84 W/m2
23:42 21.7 °C 16.9 °C 1011.4 hPa NNW 5.0 km/h 11.1 km/h 74% 0.0 mm 72 W/m2
23:48 21.6 °C 17.0 °C 1011.4 hPa North 2.6 km/h 11.1 km/h 75% 0.0 mm 68 W/m2
23:54 21.6 °C 17.0 °C 1011.4 hPa North 3.5 km/h 11.1 km/h 75% 0.0 mm 61 W/m2
Northern Hawkes Bay. New Zealand Historic Data
Compliments of Weather Underground - 2 mb